Time;durP1;ratioP1;P1;durP2;ratioP2;P2;SDS_P1;SDS_P2;PMS_P1;PMS_P2;Temp;Humidity;BMP_temperature;BMP_pressure;BME280_temperature;BME280_humidity;BME280_pressure;Samples;Min_cycle;Max_cycle;Signal;HPM_P1;HPM_P2
2022/11/12 00:00:15;;;;;;;11.18;6.05;;;;;;;4.75;84.59;103055.06;5030543;28;20040;-76
2022/11/12 00:02:41;;;;;;;10.85;7.00;;;;;;;4.75;84.23;103056.78;5029769;28;20363;-76
2022/11/12 00:05:06;;;;;;;10.88;7.00;;;;;;;4.71;84.09;103058.34;5031279;28;20029;-76
2022/11/12 00:07:31;;;;;;;10.30;6.45;;;;;;;4.66;84.39;103050.47;5032882;28;20052;-76
2022/11/12 00:09:57;;;;;;;11.02;6.53;;;;;;;4.65;84.75;103059.03;5031184;28;20472;-77
2022/11/12 00:12:22;;;;;;;11.40;6.30;;;;;;;4.67;85.27;103066.84;5031925;28;20156;-77
2022/11/12 00:14:47;;;;;;;10.93;6.22;;;;;;;4.67;84.65;103067.69;5031150;28;20033;-76
2022/11/12 00:17:12;;;;;;;9.52;6.05;;;;;;;4.66;84.88;103081.41;5031508;28;20376;-77
2022/11/12 00:19:38;;;;;;;10.77;6.20;;;;;;;4.63;84.53;103070.97;5011124;28;20143;-76
2022/11/12 00:22:03;;;;;;;12.70;6.33;;;;;;;4.63;84.09;103076.13;5029476;28;20032;-77
2022/11/12 00:24:29;;;;;;;9.63;6.53;;;;;;;4.61;84.25;103074.34;5028641;28;20116;-77
2022/11/12 00:26:54;;;;;;;10.95;6.57;;;;;;;4.58;84.42;103080.28;5028827;28;20125;-77
2022/11/12 00:29:20;;;;;;;10.93;7.03;;;;;;;4.57;84.14;103081.09;5029073;28;20029;-77
2022/11/12 00:31:45;;;;;;;12.53;7.30;;;;;;;4.53;84.30;103081.81;5028824;28;20081;-77
2022/11/12 00:34:10;;;;;;;11.30;6.90;;;;;;;4.52;84.50;103082.63;5030026;28;20033;-77
2022/11/12 00:36:35;;;;;;;10.10;6.35;;;;;;;4.50;84.28;103082.59;5030972;28;20094;-77
2022/11/12 00:39:01;;;;;;;10.60;6.53;;;;;;;4.47;84.58;103084.16;5029952;28;20040;-77
2022/11/12 00:41:26;;;;;;;9.25;6.38;;;;;;;4.46;84.35;103078.13;5029477;28;20431;-77
2022/11/12 00:43:51;;;;;;;8.95;5.72;;;;;;;4.45;84.80;103071.22;5027931;28;20480;-77
2022/11/12 00:46:16;;;;;;;10.20;5.82;;;;;;;4.46;84.14;103072.09;5030290;28;20101;-77
2022/11/12 00:48:42;;;;;;;8.40;5.60;;;;;;;4.43;83.79;103069.44;5030948;28;20033;-77
2022/11/12 00:51:08;;;;;;;8.23;5.50;;;;;;;4.44;84.38;103078.91;5026945;28;20041;-76
2022/11/12 00:53:33;;;;;;;10.50;6.20;;;;;;;4.43;83.94;103067.72;5028301;28;20030;-77
2022/11/12 00:56:05;;;;;;;12.63;6.33;;;;;;;4.42;84.68;103070.25;5026888;28;20033;-77
2022/11/12 00:58:32;;;;;;;10.93;6.50;;;;;;;4.42;84.74;103071.09;5022998;28;20029;-77
2022/11/12 01:01:04;;;;;;;10.82;6.70;;;;;;;4.43;84.86;103075.44;5023227;28;20025;-78
2022/11/12 01:03:29;;;;;;;;;;;;;;;4.45;83.87;103075.47;5032100;28;20030;-77
2022/11/12 01:06:01;;;;;;;10.98;6.40;;;;;;;4.43;83.86;103067.72;5022777;28;19924;-77
2022/11/12 01:08:28;;;;;;;11.27;6.75;;;;;;;4.40;84.40;103065.91;5021671;28;20080;-77
2022/11/12 01:10:54;;;;;;;12.50;7.25;;;;;;;4.37;84.66;103060.63;5028784;28;20071;-77
2022/11/12 01:13:19;;;;;;;10.45;6.57;;;;;;;4.35;84.57;103064.00;5031298;28;20419;-77
2022/11/12 01:15:44;;;;;;;11.90;6.45;;;;;;;4.33;83.47;103061.34;5028159;28;20040;-77
2022/11/12 01:18:10;;;;;;;9.40;5.95;;;;;;;4.31;83.16;103068.13;5019679;28;20032;-77
2022/11/12 01:20:37;;;;;;;9.32;5.75;;;;;;;4.27;82.79;103066.25;5021505;28;20059;-77
2022/11/12 01:23:02;;;;;;;7.55;5.25;;;;;;;4.25;82.86;103063.66;5032111;28;20052;-78
2022/11/12 01:25:28;;;;;;;10.02;6.38;;;;;;;4.24;83.56;103055.88;5034982;28;20469;-77
2022/11/12 01:27:53;;;;;;;10.38;6.68;;;;;;;4.20;84.00;103051.41;5027992;28;20032;-77
2022/11/12 01:30:18;;;;;;;13.17;6.40;;;;;;;4.17;83.52;103048.72;5025364;28;20460;-76
2022/11/12 01:32:43;;;;;;;10.20;6.43;;;;;;;4.13;83.63;103049.44;5029598;28;20022;-77
2022/11/12 01:35:09;;;;;;;9.60;6.07;;;;;;;4.09;83.47;103045.88;5031617;28;20033;-77
2022/11/12 01:37:34;;;;;;;9.63;5.63;;;;;;;4.08;83.36;103049.25;5030359;28;20033;-77
2022/11/12 01:39:59;;;;;;;10.00;6.00;;;;;;;4.07;83.37;103044.94;5031089;28;20029;-77
2022/11/12 01:42:30;;;;;;;8.38;5.20;;;;;;;4.05;83.01;103055.19;5035101;28;20208;-77
2022/11/12 01:44:55;;;;;;;7.65;5.13;;;;;;;4.03;83.52;103054.25;5027790;28;20042;-77
2022/11/12 01:47:32;;;;;;;6.82;4.68;;;;;;;4.03;83.15;103051.69;5031626;28;20021;-77
2022/11/12 01:50:07;;;;;;;7.00;4.53;;;;;;;4.00;83.13;103051.56;5027365;28;20028;-77
2022/11/12 01:52:39;;;;;;;7.85;4.75;;;;;;;3.98;83.20;103053.19;5015471;28;20026;-77
2022/11/12 01:55:09;;;;;;;7.97;5.20;;;;;;;3.96;83.39;103049.69;5028120;28;20025;-77
2022/11/12 01:57:44;;;;;;;7.13;4.47;;;;;;;3.89;83.16;103045.13;5027679;28;20119;-77
2022/11/12 02:00:11;;;;;;;6.53;4.63;;;;;;;3.87;83.24;103054.50;5030732;28;20037;-77
2022/11/12 02:02:38;;;;;;;6.23;4.60;;;;;;;3.84;83.05;103047.53;5027194;28;20393;-77
2022/11/12 02:05:06;;;;;;;6.78;4.25;;;;;;;3.80;82.35;103048.25;5020384;28;20457;-77
2022/11/12 02:07:32;;;;;;;7.20;4.87;;;;;;;3.76;82.18;103047.22;5028191;28;20028;-77
2022/11/12 02:10:01;;;;;;;7.47;5.30;;;;;;;3.70;81.81;103044.44;5029060;28;20025;-77
2022/11/12 02:15:10;;;;;;;7.23;4.60;;;;;;;3.63;81.73;103050.16;5031865;28;20032;-77
2022/11/12 02:17:36;;;;;;;6.93;4.73;;;;;;;3.58;81.81;103044.81;5017989;28;20045;-77
2022/11/12 02:20:01;;;;;;;6.33;4.60;;;;;;;3.57;82.58;103045.66;5026442;28;20425;-77
2022/11/12 02:22:26;;;;;;;8.13;4.20;;;;;;;3.55;82.72;103042.13;5015414;28;20022;-77
2022/11/12 02:24:52;;;;;;;6.10;4.07;;;;;;;3.55;82.54;103041.28;5025323;28;20100;-77
2022/11/12 02:27:17;;;;;;;5.80;4.13;;;;;;;3.53;82.14;103042.91;5020982;28;20109;-77
2022/11/12 02:29:45;;;;;;;6.80;4.20;;;;;;;3.52;82.19;103046.28;5017651;28;20384;-77
2022/11/12 02:32:13;;;;;;;6.47;4.10;;;;;;;3.48;82.22;103043.59;5001883;28;20026;-77
2022/11/12 02:34:39;;;;;;;7.60;4.50;;;;;;;3.47;82.06;103049.56;5030263;28;20029;-77
2022/11/12 02:37:05;;;;;;;6.63;4.67;;;;;;;3.46;82.13;103050.38;5023005;28;20029;-77
2022/11/12 02:39:31;;;;;;;6.87;4.40;;;;;;;3.45;82.66;103048.59;5023776;28;20025;-77
2022/11/12 02:41:56;;;;;;;7.07;4.77;;;;;;;3.45;82.70;103037.44;5023926;28;20045;-77
2022/11/12 02:44:21;;;;;;;8.30;4.70;;;;;;;3.47;82.91;103043.53;5013574;28;20037;-77
2022/11/12 02:46:47;;;;;;;7.50;4.57;;;;;;;3.47;83.43;103044.41;5019132;28;20532;-77
2022/11/12 02:49:12;;;;;;;7.40;4.67;;;;;;;3.49;83.59;103041.91;5020977;28;20024;-77
2022/11/12 02:51:37;;;;;;;6.70;4.63;;;;;;;3.51;83.25;103036.81;5030789;28;20433;-78
2022/11/12 02:54:03;;;;;;;7.50;4.90;;;;;;;3.52;83.29;103042.00;5015126;28;20029;-77
2022/11/12 02:56:28;;;;;;;9.00;5.03;;;;;;;3.52;83.22;103036.00;5030241;28;20453;-77
2022/11/12 02:58:53;;;;;;;8.30;5.20;;;;;;;3.48;83.44;103025.56;5033481;28;20116;-77
2022/11/12 03:01:18;;;;;;;8.30;5.13;;;;;;;3.48;83.70;103029.84;5024115;28;20025;-77
2022/11/12 03:03:44;;;;;;;8.03;5.20;;;;;;;3.47;83.20;103022.94;5017356;28;20048;-77
2022/11/12 03:06:09;;;;;;;8.77;4.63;;;;;;;3.46;83.12;103027.22;5022038;28;20025;-77
2022/11/12 03:08:34;;;;;;;6.53;4.30;;;;;;;3.44;82.93;103018.53;5020380;28;20026;-77
2022/11/12 03:11:06;;;;;;;7.27;4.50;;;;;;;3.42;82.41;103020.19;5024573;28;20057;-77
2022/11/12 03:13:31;;;;;;;6.78;3.95;;;;;;;3.39;82.61;103014.94;5019982;28;20061;-77
2022/11/12 03:16:00;;;;;;;6.17;3.77;;;;;;;3.40;82.82;103020.94;5012573;28;20033;-77
2022/11/12 03:18:25;;;;;;;6.10;4.00;;;;;;;3.38;81.95;103028.63;5029544;28;20021;-77
2022/11/12 03:20:51;;;;;;;6.37;4.20;;;;;;;3.34;81.98;103026.72;5032542;28;20036;-77
2022/11/12 03:23:16;;;;;;;5.60;3.83;;;;;;;3.32;82.55;103029.25;5033503;28;20116;-77
2022/11/12 03:25:41;;;;;;;6.53;3.97;;;;;;;3.32;82.25;103030.94;5027269;28;20033;-77
2022/11/12 03:28:09;;;;;;;5.57;3.83;;;;;;;3.30;82.09;103027.41;5011958;28;20041;-77
2022/11/12 03:30:37;;;;;;;6.50;4.23;;;;;;;3.28;82.34;103026.47;5030732;28;20041;-77
2022/11/12 03:33:03;;;;;;;6.27;3.83;;;;;;;3.28;82.44;103041.91;5023081;28;20036;-77
2022/11/12 03:35:29;;;;;;;7.40;3.80;;;;;;;3.27;82.65;103035.00;5032838;28;20037;-77
2022/11/12 03:37:54;;;;;;;5.80;4.00;;;;;;;3.26;82.81;103035.81;5031964;28;20075;-77
2022/11/12 03:40:20;;;;;;;6.33;3.90;;;;;;;3.25;83.14;103036.63;5032849;28;20084;-77
2022/11/12 03:42:47;;;;;;;7.43;4.17;;;;;;;3.24;83.22;103035.78;5019510;28;20036;-77
2022/11/12 03:45:12;;;;;;;8.20;4.10;;;;;;;3.25;83.45;103044.34;5014516;28;20217;-77
2022/11/12 03:47:43;;;;;;;7.33;4.10;;;;;;;3.25;83.53;103027.25;5024303;28;20476;-77
2022/11/12 03:50:09;;;;;;;5.30;3.67;;;;;;;3.27;83.93;103041.06;5033380;28;20112;-77
2022/11/12 03:52:34;;;;;;;5.37;3.77;;;;;;;3.30;83.96;103041.19;5033192;28;20029;-76
2022/11/12 03:54:59;;;;;;;6.03;4.03;;;;;;;3.30;83.85;103041.19;5030920;28;20091;-77
2022/11/12 03:57:25;;;;;;;6.47;4.03;;;;;;;3.32;84.04;103038.66;5033499;28;20033;-77
2022/11/12 03:59:50;;;;;;;7.37;4.30;;;;;;;3.32;84.15;103038.66;5023797;28;20105;-77
2022/11/12 04:02:15;;;;;;;6.73;4.50;;;;;;;3.32;84.16;103038.66;5014246;28;20033;-77
2022/11/12 04:10:08;;;;;;;7.43;4.50;;;;;;;3.36;84.38;103035.41;5027982;28;20491;-77
2022/11/12 04:15:17;;;;;;;6.20;4.27;;;;;;;3.36;84.44;103031.94;5024831;28;20052;-77
2022/11/12 04:23:10;;;;;;;7.13;4.60;;;;;;;3.37;84.31;103031.09;5029351;28;20057;-77
2022/11/12 04:28:19;;;;;;;8.57;4.83;;;;;;;3.35;84.22;103013.06;5025262;28;20040;-77
2022/11/12 04:30:44;;;;;;;8.40;5.07;;;;;;;3.36;83.66;103019.97;5026909;28;20139;-77
2022/11/12 04:33:09;;;;;;;8.10;5.20;;;;;;;3.34;83.76;103017.31;5022473;28;20029;-77
2022/11/12 04:35:34;;;;;;;8.47;5.30;;;;;;;3.33;83.79;103010.41;5023550;28;20037;-77
2022/11/12 04:38:00;;;;;;;7.60;5.33;;;;;;;3.32;83.81;103018.97;5027399;28;20032;-77
2022/11/12 04:46:01;;;;;;;8.03;4.97;;;;;;;3.25;83.89;103001.53;5023967;28;20047;-77
2022/11/12 04:48:26;;;;;;;8.60;5.30;;;;;;;3.22;83.52;103010.81;5011054;28;20033;-77
2022/11/12 04:50:58;;;;;;;6.70;4.50;;;;;;;3.19;83.49;103015.03;5024123;28;20029;-77
2022/11/12 04:53:23;;;;;;;8.18;4.80;;;;;;;3.16;83.05;103014.03;5025394;28;20091;-77
2022/11/12 04:55:51;;;;;;;7.10;4.40;;;;;;;3.12;83.01;103012.13;5028779;28;20037;-77
2022/11/12 04:58:16;;;;;;;6.87;4.40;;;;;;;3.13;83.68;103011.31;5027853;28;20029;-77
2022/11/12 05:00:42;;;;;;;8.60;4.73;;;;;;;3.12;83.39;103015.56;5030668;28;20024;-77
2022/11/12 05:03:07;;;;;;;6.60;4.47;;;;;;;3.11;83.25;103011.25;5008764;28;20428;-77
2022/11/12 05:05:32;;;;;;;8.73;4.70;;;;;;;3.09;83.18;103002.59;5028604;28;20040;-77
2022/11/12 05:08:01;;;;;;;6.60;4.60;;;;;;;3.09;83.20;103000.00;5030480;28;20457;-77
2022/11/12 05:10:27;;;;;;;6.37;4.37;;;;;;;3.09;83.59;102994.88;5027995;28;20034;-77
2022/11/12 05:12:52;;;;;;;8.30;5.10;;;;;;;3.10;84.10;102993.19;5029615;28;20034;-77
2022/11/12 05:15:18;;;;;;;7.30;4.40;;;;;;;3.11;83.88;102985.53;5028185;28;20075;-77
2022/11/12 05:17:44;;;;;;;8.83;5.13;;;;;;;3.10;84.22;102990.63;5031326;28;20432;-77
2022/11/12 05:20:13;;;;;;;8.57;4.77;;;;;;;3.08;83.89;102993.13;5025023;28;20118;-77
2022/11/12 05:22:38;;;;;;;6.83;4.30;;;;;;;3.09;83.68;102988.88;5025315;28;20533;-77
2022/11/12 05:25:05;;;;;;;7.53;4.60;;;;;;;3.08;83.69;102980.25;5027687;28;20116;-76
2022/11/12 05:27:30;;;;;;;7.93;5.10;;;;;;;3.08;83.31;102987.09;5025224;28;20024;-77
2022/11/12 05:29:56;;;;;;;7.57;4.87;;;;;;;3.07;83.52;102993.97;5027105;28;20026;-77
2022/11/12 05:32:21;;;;;;;7.30;4.60;;;;;;;3.07;83.48;102985.34;5015734;28;20029;-77
2022/11/12 05:34:46;;;;;;;7.93;4.70;;;;;;;3.05;83.11;102987.88;5028443;28;20518;-77
2022/11/12 05:37:13;;;;;;;6.33;4.30;;;;;;;3.03;83.77;102979.22;5016757;28;20029;-77
2022/11/12 05:39:38;;;;;;;8.30;4.80;;;;;;;3.02;83.26;102983.47;5030408;28;20030;-77
2022/11/12 05:42:04;;;;;;;7.73;4.57;;;;;;;3.02;83.48;102982.59;5015702;28;20025;-76
2022/11/12 05:44:30;;;;;;;7.77;4.90;;;;;;;3.02;83.81;102974.88;5026701;28;20477;-77
2022/11/12 05:46:55;;;;;;;6.60;4.50;;;;;;;3.01;83.91;102976.56;5029289;28;20033;-77
2022/11/12 05:49:20;;;;;;;6.73;4.53;;;;;;;2.98;83.74;102975.56;5015487;28;20041;-77
2022/11/12 05:51:46;;;;;;;8.70;4.53;;;;;;;2.95;83.70;102970.31;5024224;28;20045;-77
2022/11/12 05:54:11;;;;;;;7.47;4.73;;;;;;;2.94;83.31;102984.88;5017280;28;20030;-77
2022/11/12 05:56:37;;;;;;;6.60;4.47;;;;;;;2.93;83.68;102992.50;5025688;28;20036;-77
2022/11/12 05:59:05;;;;;;;6.83;4.37;;;;;;;2.94;84.01;102983.97;5028446;28;20021;-77
2022/11/12 06:01:30;;;;;;;7.07;4.33;;;;;;;2.97;83.94;102984.09;5025731;28;20013;-77
2022/11/12 06:03:55;;;;;;;8.10;4.80;;;;;;;2.97;83.96;102984.09;5017087;28;20465;-77
2022/11/12 06:06:21;;;;;;;8.40;4.57;;;;;;;2.98;83.91;102988.44;5024615;28;20021;-77
2022/11/12 06:08:47;;;;;;;7.50;4.80;;;;;;;2.96;84.10;102982.34;5027267;28;20040;-77
2022/11/12 06:11:12;;;;;;;7.43;4.60;;;;;;;2.96;83.86;102983.25;5013897;28;20028;-77
2022/11/12 06:13:37;;;;;;;10.10;4.97;;;;;;;2.95;84.01;102983.16;5026762;28;20382;-77
2022/11/12 06:16:03;;;;;;;7.70;5.30;;;;;;;2.95;83.77;102986.63;5022748;28;20033;-77
2022/11/12 06:18:28;;;;;;;7.63;5.43;;;;;;;2.91;83.91;102986.41;5024086;28;20431;-77
2022/11/12 06:23:37;;;;;;;7.33;4.60;;;;;;;2.87;83.68;102986.31;5019714;28;20037;-77
2022/11/12 06:26:03;;;;;;;7.50;4.80;;;;;;;2.86;83.88;102997.41;5024779;28;20042;-77
2022/11/12 06:28:29;;;;;;;7.33;4.73;;;;;;;2.84;83.84;102988.75;5016752;28;20025;-76
2022/11/12 06:30:54;;;;;;;7.17;4.70;;;;;;;2.84;83.68;102991.31;5029909;28;20105;-76
2022/11/12 06:33:20;;;;;;;7.23;4.20;;;;;;;2.83;83.54;102992.13;5041267;28;20438;-76
2022/11/12 06:35:45;;;;;;;9.13;4.60;;;;;;;2.82;83.16;102990.38;5028706;28;20365;-77
2022/11/12 06:38:10;;;;;;;7.20;4.17;;;;;;;2.81;83.18;102988.63;5034165;28;20464;-77
2022/11/12 06:40:35;;;;;;;6.23;4.10;;;;;;;2.80;83.66;102989.44;5016104;28;20076;-77
2022/11/12 06:43:01;;;;;;;6.17;4.03;;;;;;;2.82;83.67;102995.50;5037167;28;20043;-77
2022/11/12 06:45:26;;;;;;;9.20;4.27;;;;;;;2.82;83.84;103000.66;5042335;28;20029;-77
2022/11/12 06:47:51;;;;;;;7.23;4.53;;;;;;;2.83;83.66;102999.84;5021404;28;20048;-76
2022/11/12 06:50:16;;;;;;;7.37;4.33;;;;;;;2.82;84.08;103000.66;5029339;28;20033;-77
2022/11/12 06:52:42;;;;;;;6.37;4.03;;;;;;;2.84;84.20;103004.19;5032506;28;20067;-76
2022/11/12 06:55:07;;;;;;;6.00;4.00;;;;;;;2.83;83.87;103009.22;5026597;28;20025;-77
2022/11/12 06:57:33;;;;;;;7.27;4.50;;;;;;;2.82;83.56;103005.81;5024689;28;20473;-77
2022/11/12 06:59:59;;;;;;;6.00;3.73;;;;;;;2.83;83.77;103002.41;5033335;28;20033;-76
2022/11/12 07:02:24;;;;;;;7.20;4.27;;;;;;;2.81;83.53;102996.34;5006135;28;20026;-77
2022/11/12 07:04:49;;;;;;;6.67;4.40;;;;;;;2.82;83.41;103005.81;5028498;28;20036;-76
2022/11/12 07:07:15;;;;;;;6.47;3.93;;;;;;;2.81;83.31;103006.63;5026636;28;22135;-77
2022/11/12 07:09:40;;;;;;;7.80;4.20;;;;;;;2.83;83.95;103002.41;5017175;28;20029;-77
2022/11/12 07:12:06;;;;;;;7.57;4.37;;;;;;;2.86;83.62;103007.69;5026485;28;20048;-77
2022/11/12 07:14:31;;;;;;;8.97;4.43;;;;;;;2.87;84.14;103003.41;5033589;28;20025;-77
2022/11/12 07:16:56;;;;;;;9.90;4.60;;;;;;;2.88;84.25;103011.22;5015887;28;20041;-77
2022/11/12 07:19:21;;;;;;;6.30;4.13;;;;;;;2.91;84.32;103009.53;5025693;28;20465;-77
2022/11/12 07:21:47;;;;;;;8.43;4.67;;;;;;;2.94;84.46;103009.69;5029540;28;20029;-76
2022/11/12 07:24:12;;;;;;;7.57;4.30;;;;;;;2.96;84.60;103010.63;5029608;28;20096;-77
2022/11/12 07:26:37;;;;;;;8.48;4.32;;;;;;;2.99;84.15;103008.19;5035302;28;20041;-77
2022/11/12 07:29:02;;;;;;;7.07;4.60;;;;;;;3.00;84.66;103012.50;5032445;28;20048;-76
2022/11/12 07:31:28;;;;;;;8.90;4.53;;;;;;;3.02;84.33;103016.88;5022864;28;20033;-76
2022/11/12 07:33:53;;;;;;;8.17;4.73;;;;;;;3.05;84.36;103013.59;5030520;28;20036;-77
2022/11/12 07:36:20;;;;;;;13.03;4.93;;;;;;;3.07;84.55;103017.09;5025325;28;20040;-77
2022/11/12 07:38:46;;;;;;;8.37;4.70;;;;;;;3.08;84.42;103021.41;5033472;28;20025;-77
2022/11/12 07:41:13;;;;;;;7.83;4.87;;;;;;;3.12;84.56;103019.84;5030928;28;20053;-77
2022/11/12 07:43:40;;;;;;;9.63;5.10;;;;;;;3.14;84.45;103025.94;5029258;28;20041;-77
2022/11/12 07:46:09;;;;;;;8.97;5.37;;;;;;;3.16;84.58;103027.75;5025775;28;20056;-77
2022/11/12 07:48:35;;;;;;;8.00;5.07;;;;;;;3.18;85.01;103020.97;5008552;28;20029;-76
2022/11/12 07:51:07;;;;;;;8.67;5.37;;;;;;;3.23;85.12;103023.72;5029460;28;20061;-76
2022/11/12 07:53:32;;;;;;;8.63;5.17;;;;;;;3.29;85.29;103028.22;5027648;28;20100;-76
2022/11/12 07:56:00;;;;;;;9.63;5.60;;;;;;;3.33;85.39;103019.84;5031356;28;20035;-77
2022/11/12 07:58:26;;;;;;;11.10;5.60;;;;;;;3.38;85.64;103023.47;5023468;28;20128;-77
2022/11/12 08:00:52;;;;;;;9.70;5.37;;;;;;;3.43;85.62;103021.06;5026039;28;20041;-77
2022/11/12 08:03:18;;;;;;;8.93;5.33;;;;;;;3.48;85.62;103023.00;5021583;28;20079;-77
2022/11/12 08:05:43;;;;;;;8.80;5.57;;;;;;;3.54;85.86;103029.22;5029769;28;20043;-76
2022/11/12 08:08:09;;;;;;;8.30;5.13;;;;;;;3.58;85.66;103029.38;5015490;28;20113;-76
2022/11/12 08:10:35;;;;;;;11.63;5.33;;;;;;;3.61;86.06;103029.50;5029355;28;20505;-77
2022/11/12 08:13:00;;;;;;;9.30;5.83;;;;;;;3.64;86.29;103031.31;5032049;28;20052;-76
2022/11/12 08:15:25;;;;;;;8.30;5.43;;;;;;;3.68;86.44;103027.16;5007638;28;20028;-77
2022/11/12 08:17:51;;;;;;;8.30;5.27;;;;;;;3.71;87.01;103035.00;5032573;28;20063;-77
2022/11/12 08:20:16;;;;;;;10.90;5.50;;;;;;;3.76;86.85;103041.22;5025584;28;20037;-77
2022/11/12 08:22:41;;;;;;;9.20;5.27;;;;;;;3.80;86.54;103038.81;5007778;28;20505;-77
2022/11/12 08:25:07;;;;;;;8.97;5.60;;;;;;;3.86;86.64;103045.00;5031890;28;20091;-77
2022/11/12 08:27:32;;;;;;;10.53;5.47;;;;;;;3.91;86.78;103046.06;5024218;28;20033;-76
2022/11/12 08:29:58;;;;;;;8.82;5.68;;;;;;;3.98;86.98;103052.34;5028418;28;20546;-77
2022/11/12 08:32:23;;;;;;;10.73;5.53;;;;;;;4.03;86.90;103041.38;5029566;28;20030;-77
2022/11/12 08:34:49;;;;;;;9.53;5.67;;;;;;;4.09;87.04;103040.72;5024300;28;20100;-77
2022/11/12 08:37:15;;;;;;;9.47;5.83;;;;;;;4.14;87.21;103043.44;5025403;28;20033;-77
2022/11/12 08:39:40;;;;;;;10.37;5.90;;;;;;;4.20;87.50;103046.28;5023855;28;20526;-77
2022/11/12 08:42:05;;;;;;;9.57;6.03;;;;;;;4.26;87.49;103049.06;5004904;28;20459;-76
2022/11/12 08:44:30;;;;;;;10.27;6.00;;;;;;;4.31;87.32;103044.94;5023302;28;20036;-77
2022/11/12 08:46:56;;;;;;;9.45;5.97;;;;;;;4.36;87.72;103046.00;5023744;28;20056;-76
2022/11/12 08:49:21;;;;;;;11.13;5.80;;;;;;;4.43;87.95;103048.81;5029208;28;20029;-77
2022/11/12 08:51:46;;;;;;;9.90;5.97;;;;;;;4.49;87.71;103057.63;5030214;28;20041;-77
2022/11/12 08:54:12;;;;;;;10.47;5.53;;;;;;;4.53;87.78;103054.31;5033178;28;20135;-77
2022/11/12 08:56:37;;;;;;;11.90;5.88;;;;;;;4.60;87.94;103050.28;5024488;28;20064;-77
2022/11/12 08:59:03;;;;;;;9.90;6.05;;;;;;;4.65;88.44;103051.28;5030708;28;20033;-77
2022/11/12 09:01:28;;;;;;;9.00;5.75;;;;;;;4.70;88.50;103052.34;5025314;28;20384;-77
2022/11/12 09:03:53;;;;;;;11.40;6.03;;;;;;;4.76;88.33;103045.66;5027614;28;20029;-77
2022/11/12 09:06:19;;;;;;;11.73;6.15;;;;;;;4.80;88.01;103045.78;5028820;28;20033;-77
2022/11/12 09:08:44;;;;;;;9.55;5.60;;;;;;;4.85;88.17;103049.41;5027211;28;20037;-77
2022/11/12 09:11:09;;;;;;;11.75;6.43;;;;;;;4.93;88.54;103057.41;5031556;28;20057;-77
2022/11/12 09:13:34;;;;;;;9.85;5.93;;;;;;;4.97;88.51;103051.50;5030444;28;20106;-77
2022/11/12 09:16:05;;;;;;;9.88;6.30;;;;;;;5.03;88.71;103060.28;5031890;28;20045;-77
2022/11/12 09:18:31;;;;;;;10.57;5.95;;;;;;;5.09;88.50;103053.63;5030027;28;20472;-77
2022/11/12 09:21:01;;;;;;;12.15;6.93;;;;;;;5.14;89.01;103058.94;5029120;28;20476;-77
2022/11/12 09:23:27;;;;;;;9.27;6.17;;;;;;;5.22;88.92;103057.50;5030831;28;20037;-77
2022/11/12 09:25:54;;;;;;;9.35;6.22;;;;;;;5.28;89.18;103062.84;5032480;28;20041;-77
2022/11/12 09:28:19;;;;;;;13.00;7.43;;;;;;;5.34;88.83;103057.00;5027678;28;20030;-77
2022/11/12 09:30:47;;;;;;;12.38;7.00;;;;;;;5.40;89.19;103062.34;5024758;28;20465;-77
2022/11/12 09:33:13;;;;;;;11.02;7.13;;;;;;;5.48;89.12;103065.16;5036583;28;20089;-77
2022/11/12 09:35:39;;;;;;;12.52;6.53;;;;;;;5.54;89.02;103057.63;5031180;28;20156;-77
2022/11/12 09:38:04;;;;;;;9.68;6.70;;;;;;;5.59;88.90;103053.50;5028563;28;20213;-77
2022/11/12 09:40:51;;;;;;;11.75;7.32;;;;;;;5.68;89.15;103052.91;5025691;28;20045;-77
2022/11/12 09:43:28;;;;;;;11.80;7.07;;;;;;;5.75;89.22;103048.78;5012133;28;20257;-77
2022/11/12 09:45:55;;;;;;;10.95;6.95;;;;;;;5.82;89.33;103047.25;5027343;28;20033;-77
2022/11/12 09:48:25;;;;;;;12.30;7.53;;;;;;;5.89;89.44;103038.88;5028691;28;20029;-77
2022/11/12 09:51:02;;;;;;;11.77;7.43;;;;;;;5.98;89.47;103046.03;5023490;28;20109;-76
2022/11/12 09:53:37;;;;;;;10.77;7.50;;;;;;;6.04;89.58;103039.34;5030792;28;20116;-77
2022/11/12 09:56:06;;;;;;;10.75;7.07;;;;;;;6.12;89.39;103034.41;5030335;28;20467;-77
2022/11/12 09:58:31;;;;;;;13.32;7.43;;;;;;;6.19;89.27;103038.88;5031142;28;20036;-77
2022/11/12 10:01:10;;;;;;;13.60;6.80;;;;;;;6.28;89.25;103046.03;5031122;28;20037;-77
2022/11/12 10:03:47;;;;;;;10.50;6.80;;;;;;;6.36;89.43;103038.47;5024669;28;20439;-77
2022/11/12 10:06:19;;;;;;;10.50;6.32;;;;;;;6.42;89.54;103038.66;5034307;28;20037;-77
2022/11/12 10:08:52;;;;;;;10.70;6.57;;;;;;;6.46;89.45;103030.16;5032394;28;20384;-76
2022/11/12 10:12:30;;;;;;;9.43;6.30;;;;;;;6.54;89.42;103027.78;5035230;28;20032;-77
2022/11/12 10:14:35;;;;;;;9.18;6.10;;;;;;;6.63;89.51;103032.31;5033027;28;20054;-77
2022/11/12 10:17:09;;;;;;;9.35;5.82;;;;;;;6.71;89.72;103035.97;5030885;28;20056;-77
2022/11/12 10:20:05;;;;;;;9.73;6.45;;;;;;;6.80;89.22;103028.44;5022636;28;20109;-77
2022/11/12 10:23:00;;;;;;;10.85;6.10;;;;;;;6.91;89.08;103026.13;5028006;28;20524;-77
2022/11/12 10:25:26;;;;;;;9.55;6.47;;;;;;;7.01;89.51;103029.81;5030015;28;20026;-76
2022/11/12 10:27:55;;;;;;;10.07;6.20;;;;;;;7.09;89.79;103023.13;5030114;28;20057;-76
2022/11/12 10:30:23;;;;;;;12.13;6.55;;;;;;;7.17;89.72;103015.53;5029418;28;20025;-77
2022/11/12 10:32:49;;;;;;;11.85;6.85;;;;;;;7.24;89.60;103017.44;5028328;28;20044;-77
2022/11/12 10:35:17;;;;;;;9.52;6.57;;;;;;;7.32;89.77;103011.53;5030349;28;20036;-77
2022/11/12 10:37:52;;;;;;;9.55;6.30;;;;;;;7.40;89.80;103008.28;5029438;28;20052;-77
2022/11/12 10:40:24;;;;;;;12.43;6.75;;;;;;;7.50;89.43;103005.91;5011710;28;20532;-77
2022/11/12 10:43:19;;;;;;;9.65;6.82;;;;;;;7.58;89.15;103012.13;5028846;28;20025;-77
2022/11/12 10:45:47;;;;;;;8.82;6.28;;;;;;;7.67;89.12;103007.16;5028290;28;20028;-77
2022/11/12 10:48:27;;;;;;;10.00;6.65;;;;;;;7.77;89.14;103004.75;5026156;28;20581;-77
2022/11/12 10:50:53;;;;;;;9.52;6.20;;;;;;;7.86;89.30;103007.53;5027596;28;20033;-77
2022/11/12 10:53:37;;;;;;;10.93;6.68;;;;;;;7.97;89.18;103006.03;5029996;28;20133;-77
2022/11/12 10:56:22;;;;;;;10.00;6.80;;;;;;;8.09;89.01;103009.72;5028346;28;20033;-77
2022/11/12 10:59:12;;;;;;;10.02;6.57;;;;;;;8.19;88.69;103007.34;5026836;28;20638;-77
2022/11/12 11:01:38;;;;;;;11.05;6.70;;;;;;;8.26;88.33;103003.13;5029357;28;20048;-77
2022/11/12 11:04:13;;;;;;;11.55;6.80;;;;;;;8.32;88.08;102997.19;5011453;28;20033;-77
2022/11/12 11:06:39;;;;;;;9.65;6.97;;;;;;;8.38;87.97;102999.00;5010816;28;20372;-76
2022/11/12 11:09:16;;;;;;;10.20;6.82;;;;;;;8.45;87.87;102991.41;5028016;28;20040;-77
2022/11/12 11:11:50;;;;;;;8.60;6.15;;;;;;;8.53;87.98;102991.56;5028624;28;20029;-77
2022/11/12 11:14:21;;;;;;;10.02;6.88;;;;;;;8.60;87.88;102993.41;5029332;28;20507;-77
2022/11/12 11:16:51;;;;;;;11.30;7.28;;;;;;;8.67;87.92;102993.50;5027962;28;20031;-77
2022/11/12 11:19:16;;;;;;;10.02;7.03;;;;;;;8.72;88.09;102984.94;5030021;28;20029;-77
2022/11/12 11:21:48;;;;;;;11.52;7.50;;;;;;;8.79;87.54;102992.00;5028498;28;20820;-78
2022/11/12 11:24:28;;;;;;;13.85;7.28;;;;;;;8.88;87.34;102985.19;5028561;28;20029;-77
2022/11/12 11:26:58;;;;;;;9.65;7.18;;;;;;;8.96;87.12;102975.81;5025923;28;20487;-77
2022/11/12 11:29:37;;;;;;;13.25;7.32;;;;;;;9.03;86.87;102974.19;5027374;28;20237;-77
2022/11/12 11:32:16;;;;;;;9.98;7.20;;;;;;;9.08;86.89;102969.91;5029034;28;20535;-78
2022/11/12 11:34:56;;;;;;;12.05;7.43;;;;;;;9.16;86.63;102968.31;5029014;28;20109;-78
2022/11/12 11:37:26;;;;;;;10.85;7.13;;;;;;;9.21;85.99;102970.97;5030475;28;20168;-78
2022/11/12 11:40:05;;;;;;;11.93;7.25;;;;;;;9.29;85.92;102968.50;5029652;28;20488;-77
2022/11/12 11:42:58;;;;;;;11.60;6.90;;;;;;;9.36;85.49;102967.75;5028851;28;20029;-77
2022/11/12 11:45:32;;;;;;;9.73;7.05;;;;;;;9.42;84.76;102967.81;5029583;28;20037;-77
2022/11/12 11:48:09;;;;;;;11.10;7.10;;;;;;;9.47;84.40;102957.50;5032258;28;20033;-77
2022/11/12 11:50:45;;;;;;;9.63;7.15;;;;;;;9.50;83.46;102950.59;5029830;28;20056;-78
2022/11/12 11:54:00;;;;;;;11.05;6.50;;;;;;;9.56;83.23;102950.66;5029846;28;20026;-77
2022/11/12 11:56:32;;;;;;;9.25;6.55;;;;;;;9.62;82.52;102955.09;4948552;28;20050;-77
2022/11/12 11:59:15;;;;;;;10.38;6.93;;;;;;;9.69;82.28;102953.44;5015854;28;20033;-77
2022/11/12 12:02:02;;;;;;;9.25;6.70;;;;;;;9.77;81.98;102950.94;5028340;28;20029;-76